sensor_id;sensor_type;location;lat;lon;timestamp;temperature;humidity
14140;DHT22;7150;53.514;9.988;2023-04-24T00:01:12;18.20;92.60
14140;DHT22;7150;53.514;9.988;2023-04-24T00:03:38;18.20;92.60
14140;DHT22;7150;53.514;9.988;2023-04-24T00:06:04;18.10;92.60
14140;DHT22;7150;53.514;9.988;2023-04-24T00:08:32;18.10;92.70
14140;DHT22;7150;53.514;9.988;2023-04-24T00:10:57;18.10;92.80
14140;DHT22;7150;53.514;9.988;2023-04-24T00:13:23;18.00;92.80
14140;DHT22;7150;53.514;9.988;2023-04-24T00:15:49;18.10;92.90
14140;DHT22;7150;53.514;9.988;2023-04-24T00:18:14;18.00;92.90
14140;DHT22;7150;53.514;9.988;2023-04-24T00:20:40;18.00;92.90
14140;DHT22;7150;53.514;9.988;2023-04-24T00:23:06;18.00;93.00
14140;DHT22;7150;53.514;9.988;2023-04-24T00:25:31;18.00;93.00
14140;DHT22;7150;53.514;9.988;2023-04-24T00:27:57;18.00;93.10
14140;DHT22;7150;53.514;9.988;2023-04-24T00:30:22;18.00;93.10
14140;DHT22;7150;53.514;9.988;2023-04-24T00:32:48;18.00;93.20
14140;DHT22;7150;53.514;9.988;2023-04-24T00:35:13;18.00;93.30
14140;DHT22;7150;53.514;9.988;2023-04-24T00:37:40;17.90;93.30
14140;DHT22;7150;53.514;9.988;2023-04-24T00:40:06;17.90;93.40
14140;DHT22;7150;53.514;9.988;2023-04-24T00:42:32;17.90;93.40
14140;DHT22;7150;53.514;9.988;2023-04-24T00:44:58;17.90;93.40
14140;DHT22;7150;53.514;9.988;2023-04-24T00:47:25;17.90;93.40
14140;DHT22;7150;53.514;9.988;2023-04-24T00:49:50;17.90;93.30
14140;DHT22;7150;53.514;9.988;2023-04-24T00:52:16;17.90;93.30
14140;DHT22;7150;53.514;9.988;2023-04-24T00:54:44;17.90;93.20
14140;DHT22;7150;53.514;9.988;2023-04-24T00:57:10;17.90;93.20
14140;DHT22;7150;53.514;9.988;2023-04-24T00:59:36;17.80;93.30
14140;DHT22;7150;53.514;9.988;2023-04-24T01:02:02;17.80;93.30
14140;DHT22;7150;53.514;9.988;2023-04-24T01:04:27;17.90;93.30
14140;DHT22;7150;53.514;9.988;2023-04-24T01:06:54;17.90;93.30
14140;DHT22;7150;53.514;9.988;2023-04-24T01:09:22;17.80;93.20
14140;DHT22;7150;53.514;9.988;2023-04-24T01:11:48;17.80;93.20
14140;DHT22;7150;53.514;9.988;2023-04-24T01:14:14;17.80;93.20
14140;DHT22;7150;53.514;9.988;2023-04-24T01:16:40;17.80;93.20
14140;DHT22;7150;53.514;9.988;2023-04-24T01:19:07;17.80;93.20
14140;DHT22;7150;53.514;9.988;2023-04-24T01:21:35;17.80;93.20
14140;DHT22;7150;53.514;9.988;2023-04-24T01:24:02;17.80;93.10
14140;DHT22;7150;53.514;9.988;2023-04-24T01:26:27;17.80;93.10
14140;DHT22;7150;53.514;9.988;2023-04-24T01:28:53;17.80;93.10
14140;DHT22;7150;53.514;9.988;2023-04-24T01:31:19;17.70;93.10
14140;DHT22;7150;53.514;9.988;2023-04-24T01:33:45;17.70;93.10
14140;DHT22;7150;53.514;9.988;2023-04-24T01:36:11;17.70;93.40
14140;DHT22;7150;53.514;9.988;2023-04-24T01:38:37;17.80;93.10
14140;DHT22;7150;53.514;9.988;2023-04-24T01:41:03;17.80;93.10
14140;DHT22;7150;53.514;9.988;2023-04-24T01:43:29;17.70;93.10
14140;DHT22;7150;53.514;9.988;2023-04-24T01:45:55;17.70;93.10
14140;DHT22;7150;53.514;9.988;2023-04-24T01:48:21;17.70;93.10
14140;DHT22;7150;53.514;9.988;2023-04-24T01:50:47;17.70;93.10
14140;DHT22;7150;53.514;9.988;2023-04-24T01:53:12;17.80;93.10
14140;DHT22;7150;53.514;9.988;2023-04-24T01:55:38;17.80;93.00
14140;DHT22;7150;53.514;9.988;2023-04-24T01:58:03;17.70;93.00
14140;DHT22;7150;53.514;9.988;2023-04-24T02:00:29;17.70;93.00
14140;DHT22;7150;53.514;9.988;2023-04-24T02:02:55;17.70;93.00
14140;DHT22;7150;53.514;9.988;2023-04-24T02:05:20;17.80;92.90
14140;DHT22;7150;53.514;9.988;2023-04-24T02:07:46;17.70;92.80
14140;DHT22;7150;53.514;9.988;2023-04-24T02:10:11;17.70;92.70
14140;DHT22;7150;53.514;9.988;2023-04-24T02:12:37;17.70;92.80
14140;DHT22;7150;53.514;9.988;2023-04-24T02:15:03;17.70;92.70
14140;DHT22;7150;53.514;9.988;2023-04-24T02:17:29;17.70;92.80
14140;DHT22;7150;53.514;9.988;2023-04-24T02:19:56;17.70;92.80
14140;DHT22;7150;53.514;9.988;2023-04-24T02:22:21;17.60;92.70
14140;DHT22;7150;53.514;9.988;2023-04-24T02:24:47;17.70;92.70
14140;DHT22;7150;53.514;9.988;2023-04-24T02:27:12;17.60;92.70
14140;DHT22;7150;53.514;9.988;2023-04-24T02:29:38;17.60;92.60
14140;DHT22;7150;53.514;9.988;2023-04-24T02:32:03;17.60;92.60
14140;DHT22;7150;53.514;9.988;2023-04-24T02:34:29;17.60;92.50
14140;DHT22;7150;53.514;9.988;2023-04-24T02:36:54;17.50;92.50
14140;DHT22;7150;53.514;9.988;2023-04-24T02:39:20;17.50;92.40
14140;DHT22;7150;53.514;9.988;2023-04-24T02:41:45;17.50;92.40
14140;DHT22;7150;53.514;9.988;2023-04-24T02:44:11;17.60;92.40
14140;DHT22;7150;53.514;9.988;2023-04-24T02:46:36;17.50;92.30
14140;DHT22;7150;53.514;9.988;2023-04-24T02:49:02;17.50;92.30
14140;DHT22;7150;53.514;9.988;2023-04-24T02:51:28;17.60;92.20
14140;DHT22;7150;53.514;9.988;2023-04-24T02:53:54;17.50;92.20
14140;DHT22;7150;53.514;9.988;2023-04-24T02:56:19;17.50;92.10
14140;DHT22;7150;53.514;9.988;2023-04-24T02:58:45;17.50;92.10
14140;DHT22;7150;53.514;9.988;2023-04-24T03:01:10;17.50;92.00
14140;DHT22;7150;53.514;9.988;2023-04-24T03:03:37;17.50;92.00
14140;DHT22;7150;53.514;9.988;2023-04-24T03:06:03;17.40;92.00
14140;DHT22;7150;53.514;9.988;2023-04-24T03:08:31;17.40;92.00
14140;DHT22;7150;53.514;9.988;2023-04-24T03:10:56;17.40;91.90
14140;DHT22;7150;53.514;9.988;2023-04-24T03:13:22;17.40;91.80
14140;DHT22;7150;53.514;9.988;2023-04-24T03:15:47;17.40;91.80
14140;DHT22;7150;53.514;9.988;2023-04-24T03:18:13;17.40;91.70
14140;DHT22;7150;53.514;9.988;2023-04-24T03:20:39;17.30;91.70
14140;DHT22;7150;53.514;9.988;2023-04-24T03:23:04;17.30;91.70
14140;DHT22;7150;53.514;9.988;2023-04-24T03:25:30;17.30;91.50
14140;DHT22;7150;53.514;9.988;2023-04-24T03:27:55;17.20;91.40
14140;DHT22;7150;53.514;9.988;2023-04-24T03:30:21;17.30;91.30
14140;DHT22;7150;53.514;9.988;2023-04-24T03:32:46;17.30;91.20
14140;DHT22;7150;53.514;9.988;2023-04-24T03:35:12;17.30;91.10
14140;DHT22;7150;53.514;9.988;2023-04-24T03:37:37;17.20;90.90
14140;DHT22;7150;53.514;9.988;2023-04-24T03:40:03;17.20;90.80
14140;DHT22;7150;53.514;9.988;2023-04-24T03:42:28;17.20;90.70
14140;DHT22;7150;53.514;9.988;2023-04-24T03:44:54;17.20;90.70
14140;DHT22;7150;53.514;9.988;2023-04-24T03:47:19;17.20;90.70
14140;DHT22;7150;53.514;9.988;2023-04-24T03:49:45;17.20;90.60
14140;DHT22;7150;53.514;9.988;2023-04-24T03:52:10;17.20;90.40
14140;DHT22;7150;53.514;9.988;2023-04-24T03:54:36;17.20;90.30
14140;DHT22;7150;53.514;9.988;2023-04-24T03:57:01;17.20;90.20
14140;DHT22;7150;53.514;9.988;2023-04-24T03:59:27;17.10;90.20
14140;DHT22;7150;53.514;9.988;2023-04-24T04:01:52;17.10;90.00
14140;DHT22;7150;53.514;9.988;2023-04-24T04:04:18;17.10;89.90
14140;DHT22;7150;53.514;9.988;2023-04-24T04:06:43;17.20;89.30
14140;DHT22;7150;53.514;9.988;2023-04-24T04:09:12;17.10;88.80
14140;DHT22;7150;53.514;9.988;2023-04-24T04:11:37;17.10;88.60
14140;DHT22;7150;53.514;9.988;2023-04-24T04:14:03;17.00;88.60
14140;DHT22;7150;53.514;9.988;2023-04-24T04:16:28;17.00;88.50
14140;DHT22;7150;53.514;9.988;2023-04-24T04:18:54;17.00;88.30
14140;DHT22;7150;53.514;9.988;2023-04-24T04:21:20;17.00;88.10
14140;DHT22;7150;53.514;9.988;2023-04-24T04:23:46;17.00;87.90
14140;DHT22;7150;53.514;9.988;2023-04-24T04:26:11;17.00;87.60
14140;DHT22;7150;53.514;9.988;2023-04-24T04:28:38;17.00;87.20
14140;DHT22;7150;53.514;9.988;2023-04-24T04:31:04;17.00;87.10
14140;DHT22;7150;53.514;9.988;2023-04-24T04:33:30;17.00;87.00
14140;DHT22;7150;53.514;9.988;2023-04-24T04:35:56;17.00;86.60
14140;DHT22;7150;53.514;9.988;2023-04-24T04:38:22;17.00;85.80
14140;DHT22;7150;53.514;9.988;2023-04-24T04:40:48;17.00;85.70
14140;DHT22;7150;53.514;9.988;2023-04-24T04:43:13;17.00;85.50
14140;DHT22;7150;53.514;9.988;2023-04-24T04:45:40;17.00;85.50
14140;DHT22;7150;53.514;9.988;2023-04-24T04:48:06;17.00;85.50
14140;DHT22;7150;53.514;9.988;2023-04-24T04:50:34;17.00;85.40
14140;DHT22;7150;53.514;9.988;2023-04-24T04:53:00;17.00;85.60
14140;DHT22;7150;53.514;9.988;2023-04-24T04:55:25;17.00;85.50
14140;DHT22;7150;53.514;9.988;2023-04-24T04:57:51;17.00;85.30
14140;DHT22;7150;53.514;9.988;2023-04-24T05:00:17;17.00;85.20
14140;DHT22;7150;53.514;9.988;2023-04-24T05:02:42;17.00;85.30
14140;DHT22;7150;53.514;9.988;2023-04-24T05:05:08;17.00;85.30
14140;DHT22;7150;53.514;9.988;2023-04-24T05:07:34;17.00;85.20
14140;DHT22;7150;53.514;9.988;2023-04-24T05:10:00;17.10;84.90
14140;DHT22;7150;53.514;9.988;2023-04-24T05:12:25;17.10;84.80
14140;DHT22;7150;53.514;9.988;2023-04-24T05:14:51;17.10;84.70
14140;DHT22;7150;53.514;9.988;2023-04-24T05:17:16;17.10;84.70
14140;DHT22;7150;53.514;9.988;2023-04-24T05:19:42;17.20;84.70
14140;DHT22;7150;53.514;9.988;2023-04-24T05:22:08;17.20;84.60
14140;DHT22;7150;53.514;9.988;2023-04-24T05:24:35;17.20;84.50
14140;DHT22;7150;53.514;9.988;2023-04-24T05:27:00;17.20;84.40
14140;DHT22;7150;53.514;9.988;2023-04-24T05:29:27;17.20;84.00
14140;DHT22;7150;53.514;9.988;2023-04-24T05:31:53;17.30;83.80
14140;DHT22;7150;53.514;9.988;2023-04-24T05:34:18;17.30;83.80
14140;DHT22;7150;53.514;9.988;2023-04-24T05:36:44;17.30;83.80
14140;DHT22;7150;53.514;9.988;2023-04-24T05:39:09;17.30;83.10
14140;DHT22;7150;53.514;9.988;2023-04-24T05:41:35;17.30;83.20
14140;DHT22;7150;53.514;9.988;2023-04-24T05:44:00;17.30;83.10
14140;DHT22;7150;53.514;9.988;2023-04-24T05:46:26;17.40;83.40
14140;DHT22;7150;53.514;9.988;2023-04-24T05:48:51;17.30;83.40
14140;DHT22;7150;53.514;9.988;2023-04-24T05:51:17;17.30;83.30
14140;DHT22;7150;53.514;9.988;2023-04-24T05:53:42;17.40;83.30
14140;DHT22;7150;53.514;9.988;2023-04-24T05:56:08;17.40;83.30
14140;DHT22;7150;53.514;9.988;2023-04-24T05:58:34;17.40;83.20
14140;DHT22;7150;53.514;9.988;2023-04-24T06:00:59;17.40;83.10
14140;DHT22;7150;53.514;9.988;2023-04-24T06:03:26;17.40;82.60
14140;DHT22;7150;53.514;9.988;2023-04-24T06:05:52;17.50;82.30
14140;DHT22;7150;53.514;9.988;2023-04-24T06:08:18;17.50;81.90
14140;DHT22;7150;53.514;9.988;2023-04-24T06:10:43;17.50;82.10
14140;DHT22;7150;53.514;9.988;2023-04-24T06:13:09;17.50;82.00
14140;DHT22;7150;53.514;9.988;2023-04-24T06:15:35;17.50;81.80
14140;DHT22;7150;53.514;9.988;2023-04-24T06:18:00;17.60;81.60
14140;DHT22;7150;53.514;9.988;2023-04-24T06:20:26;17.60;81.50
14140;DHT22;7150;53.514;9.988;2023-04-24T06:22:52;17.70;81.70
14140;DHT22;7150;53.514;9.988;2023-04-24T06:25:18;17.70;81.40
14140;DHT22;7150;53.514;9.988;2023-04-24T06:27:44;17.70;81.40
14140;DHT22;7150;53.514;9.988;2023-04-24T06:30:10;17.80;81.40
14140;DHT22;7150;53.514;9.988;2023-04-24T06:32:36;17.80;81.30
14140;DHT22;7150;53.514;9.988;2023-04-24T06:35:01;17.80;81.00
14140;DHT22;7150;53.514;9.988;2023-04-24T06:37:27;17.90;80.50
14140;DHT22;7150;53.514;9.988;2023-04-24T06:39:52;18.00;80.00
14140;DHT22;7150;53.514;9.988;2023-04-24T06:42:18;18.00;79.90
14140;DHT22;7150;53.514;9.988;2023-04-24T06:44:46;18.00;79.60
14140;DHT22;7150;53.514;9.988;2023-04-24T06:47:11;18.00;79.20
14140;DHT22;7150;53.514;9.988;2023-04-24T06:49:39;17.90;78.70
14140;DHT22;7150;53.514;9.988;2023-04-24T06:52:05;18.00;78.30
14140;DHT22;7150;53.514;9.988;2023-04-24T06:54:31;18.00;78.40
14140;DHT22;7150;53.514;9.988;2023-04-24T06:56:57;18.10;78.70
14140;DHT22;7150;53.514;9.988;2023-04-24T06:59:24;18.20;78.80
14140;DHT22;7150;53.514;9.988;2023-04-24T07:01:50;18.20;78.60
14140;DHT22;7150;53.514;9.988;2023-04-24T07:04:16;18.20;78.80
14140;DHT22;7150;53.514;9.988;2023-04-24T07:06:42;18.20;78.80
14140;DHT22;7150;53.514;9.988;2023-04-24T07:09:08;18.20;78.20
14140;DHT22;7150;53.514;9.988;2023-04-24T07:11:34;18.20;78.10
14140;DHT22;7150;53.514;9.988;2023-04-24T07:14:02;18.20;78.00
14140;DHT22;7150;53.514;9.988;2023-04-24T07:16:28;18.30;78.10
14140;DHT22;7150;53.514;9.988;2023-04-24T07:18:53;18.30;76.80
14140;DHT22;7150;53.514;9.988;2023-04-24T07:21:19;18.30;77.30
14140;DHT22;7150;53.514;9.988;2023-04-24T07:23:44;18.30;77.40
14140;DHT22;7150;53.514;9.988;2023-04-24T07:26:10;18.40;77.80
14140;DHT22;7150;53.514;9.988;2023-04-24T07:28:35;18.40;77.50
14140;DHT22;7150;53.514;9.988;2023-04-24T07:31:01;18.50;76.80
14140;DHT22;7150;53.514;9.988;2023-04-24T07:33:26;18.40;76.70
14140;DHT22;7150;53.514;9.988;2023-04-24T07:35:52;18.40;76.30
14140;DHT22;7150;53.514;9.988;2023-04-24T07:38:18;18.40;76.00
14140;DHT22;7150;53.514;9.988;2023-04-24T07:40:47;18.40;75.40
14140;DHT22;7150;53.514;9.988;2023-04-24T07:43:13;18.50;75.60
14140;DHT22;7150;53.514;9.988;2023-04-24T07:45:39;18.50;75.80
14140;DHT22;7150;53.514;9.988;2023-04-24T07:48:05;18.50;75.90
14140;DHT22;7150;53.514;9.988;2023-04-24T07:50:30;18.50;76.00
14140;DHT22;7150;53.514;9.988;2023-04-24T07:52:56;18.50;75.80
14140;DHT22;7150;53.514;9.988;2023-04-24T07:55:21;18.50;76.00
14140;DHT22;7150;53.514;9.988;2023-04-24T07:57:47;18.60;76.00
14140;DHT22;7150;53.514;9.988;2023-04-24T08:00:13;18.50;75.60
14140;DHT22;7150;53.514;9.988;2023-04-24T08:02:38;18.60;75.80
14140;DHT22;7150;53.514;9.988;2023-04-24T08:05:04;18.50;75.40
14140;DHT22;7150;53.514;9.988;2023-04-24T08:07:30;18.60;75.50
14140;DHT22;7150;53.514;9.988;2023-04-24T08:09:55;18.50;75.30
14140;DHT22;7150;53.514;9.988;2023-04-24T08:12:21;18.60;75.40
14140;DHT22;7150;53.514;9.988;2023-04-24T08:14:46;18.60;75.10
14140;DHT22;7150;53.514;9.988;2023-04-24T08:17:12;18.50;73.70
14140;DHT22;7150;53.514;9.988;2023-04-24T08:19:37;18.40;73.60
14140;DHT22;7150;53.514;9.988;2023-04-24T08:22:03;18.30;73.40
14140;DHT22;7150;53.514;9.988;2023-04-24T08:24:29;18.20;73.50
14140;DHT22;7150;53.514;9.988;2023-04-24T08:26:54;18.20;73.70
14140;DHT22;7150;53.514;9.988;2023-04-24T08:29:22;18.20;73.80
14140;DHT22;7150;53.514;9.988;2023-04-24T08:31:47;18.20;74.10
14140;DHT22;7150;53.514;9.988;2023-04-24T08:34:13;18.20;74.00
14140;DHT22;7150;53.514;9.988;2023-04-24T08:36:38;18.20;74.10
14140;DHT22;7150;53.514;9.988;2023-04-24T08:39:06;18.30;74.50
14140;DHT22;7150;53.514;9.988;2023-04-24T08:41:33;18.30;74.60
14140;DHT22;7150;53.514;9.988;2023-04-24T08:44:00;18.30;74.50
14140;DHT22;7150;53.514;9.988;2023-04-24T08:46:27;18.40;74.30
14140;DHT22;7150;53.514;9.988;2023-04-24T08:48:53;18.40;74.30
14140;DHT22;7150;53.514;9.988;2023-04-24T08:51:19;18.40;73.90
14140;DHT22;7150;53.514;9.988;2023-04-24T08:53:46;18.40;73.80
14140;DHT22;7150;53.514;9.988;2023-04-24T08:56:11;18.40;73.80
14140;DHT22;7150;53.514;9.988;2023-04-24T08:58:38;18.40;73.90
14140;DHT22;7150;53.514;9.988;2023-04-24T09:01:04;18.50;73.90
14140;DHT22;7150;53.514;9.988;2023-04-24T09:03:31;18.50;74.10
14140;DHT22;7150;53.514;9.988;2023-04-24T09:05:59;18.60;74.30
14140;DHT22;7150;53.514;9.988;2023-04-24T09:08:26;18.70;74.00
14140;DHT22;7150;53.514;9.988;2023-04-24T09:10:53;18.80;73.70
14140;DHT22;7150;53.514;9.988;2023-04-24T09:13:19;18.80;73.40
14140;DHT22;7150;53.514;9.988;2023-04-24T09:15:45;18.80;73.10
14140;DHT22;7150;53.514;9.988;2023-04-24T09:18:10;18.90;73.00
14140;DHT22;7150;53.514;9.988;2023-04-24T09:21:00;18.80;72.80
14140;DHT22;7150;53.514;9.988;2023-04-24T09:23:30;18.70;73.20
14140;DHT22;7150;53.514;9.988;2023-04-24T09:25:57;18.70;72.90
14140;DHT22;7150;53.514;9.988;2023-04-24T09:28:32;18.70;72.90
14140;DHT22;7150;53.514;9.988;2023-04-24T09:31:12;18.70;73.10
14140;DHT22;7150;53.514;9.988;2023-04-24T09:33:39;18.70;73.40
14140;DHT22;7150;53.514;9.988;2023-04-24T09:36:04;18.80;73.30
14140;DHT22;7150;53.514;9.988;2023-04-24T09:38:36;18.80;74.20
14140;DHT22;7150;53.514;9.988;2023-04-24T09:41:06;18.80;73.50
14140;DHT22;7150;53.514;9.988;2023-04-24T09:43:33;18.80;73.50
14140;DHT22;7150;53.514;9.988;2023-04-24T09:46:05;18.80;73.40
14140;DHT22;7150;53.514;9.988;2023-04-24T09:48:35;18.80;73.30
14140;DHT22;7150;53.514;9.988;2023-04-24T09:51:02;18.70;73.10
14140;DHT22;7150;53.514;9.988;2023-04-24T09:53:29;18.70;73.20
14140;DHT22;7150;53.514;9.988;2023-04-24T09:55:55;18.70;73.40
14140;DHT22;7150;53.514;9.988;2023-04-24T09:58:28;18.70;73.50
14140;DHT22;7150;53.514;9.988;2023-04-24T10:00:55;18.70;73.50
14140;DHT22;7150;53.514;9.988;2023-04-24T10:03:24;18.60;73.50
14140;DHT22;7150;53.514;9.988;2023-04-24T10:05:51;18.60;73.40
14140;DHT22;7150;53.514;9.988;2023-04-24T10:08:17;18.70;73.00
14140;DHT22;7150;53.514;9.988;2023-04-24T10:10:46;18.70;72.70
14140;DHT22;7150;53.514;9.988;2023-04-24T10:13:13;18.60;72.70
14140;DHT22;7150;53.514;9.988;2023-04-24T10:15:41;18.60;72.70
14140;DHT22;7150;53.514;9.988;2023-04-24T10:18:08;18.60;72.80
14140;DHT22;7150;53.514;9.988;2023-04-24T10:20:35;18.60;73.10
14140;DHT22;7150;53.514;9.988;2023-04-24T10:23:01;18.70;73.40
14140;DHT22;7150;53.514;9.988;2023-04-24T10:25:29;18.70;73.30
14140;DHT22;7150;53.514;9.988;2023-04-24T10:27:56;18.70;73.30
14140;DHT22;7150;53.514;9.988;2023-04-24T10:30:23;18.70;73.30
14140;DHT22;7150;53.514;9.988;2023-04-24T10:32:49;18.70;73.30
14140;DHT22;7150;53.514;9.988;2023-04-24T10:35:15;18.70;73.30
14140;DHT22;7150;53.514;9.988;2023-04-24T10:37:51;18.70;73.30
14140;DHT22;7150;53.514;9.988;2023-04-24T10:40:26;18.70;73.50
14140;DHT22;7150;53.514;9.988;2023-04-24T10:42:52;18.60;73.20
14140;DHT22;7150;53.514;9.988;2023-04-24T10:45:22;18.60;73.40
14140;DHT22;7150;53.514;9.988;2023-04-24T10:48:12;18.60;73.50
14140;DHT22;7150;53.514;9.988;2023-04-24T10:50:53;18.60;73.40
14140;DHT22;7150;53.514;9.988;2023-04-24T10:53:20;18.60;73.30
14140;DHT22;7150;53.514;9.988;2023-04-24T10:55:48;18.60;73.20
14140;DHT22;7150;53.514;9.988;2023-04-24T10:58:15;18.70;72.90
14140;DHT22;7150;53.514;9.988;2023-04-24T11:00:42;18.80;72.60
14140;DHT22;7150;53.514;9.988;2023-04-24T11:03:29;18.90;71.90
14140;DHT22;7150;53.514;9.988;2023-04-24T11:05:56;19.00;71.40
14140;DHT22;7150;53.514;9.988;2023-04-24T11:08:24;19.10;71.60
14140;DHT22;7150;53.514;9.988;2023-04-24T11:11:12;19.20;71.40
14140;DHT22;7150;53.514;9.988;2023-04-24T11:16:33;19.30;70.80
14140;DHT22;7150;53.514;9.988;2023-04-24T11:21:44;19.40;70.40
14140;DHT22;7150;53.514;9.988;2023-04-24T11:27:06;19.40;69.90
14140;DHT22;7150;53.514;9.988;2023-04-24T11:29:46;19.30;70.10
14140;DHT22;7150;53.514;9.988;2023-04-24T11:34:54;19.30;70.70
14140;DHT22;7150;53.514;9.988;2023-04-24T11:37:20;19.40;70.60
14140;DHT22;7150;53.514;9.988;2023-04-24T11:39:45;19.50;69.80
14140;DHT22;7150;53.514;9.988;2023-04-24T11:42:14;19.50;69.20
14140;DHT22;7150;53.514;9.988;2023-04-24T11:44:42;19.50;69.00
14140;DHT22;7150;53.514;9.988;2023-04-24T11:47:08;19.50;68.80
14140;DHT22;7150;53.514;9.988;2023-04-24T11:49:33;19.40;68.00
14140;DHT22;7150;53.514;9.988;2023-04-24T11:52:01;19.50;67.10
14140;DHT22;7150;53.514;9.988;2023-04-24T11:54:27;19.40;67.30
14140;DHT22;7150;53.514;9.988;2023-04-24T11:56:52;19.30;67.50
14140;DHT22;7150;53.514;9.988;2023-04-24T11:59:18;19.30;67.90
14140;DHT22;7150;53.514;9.988;2023-04-24T12:01:48;19.30;67.80
14140;DHT22;7150;53.514;9.988;2023-04-24T12:04:14;19.30;67.50
14140;DHT22;7150;53.514;9.988;2023-04-24T12:06:48;19.40;67.60
14140;DHT22;7150;53.514;9.988;2023-04-24T12:09:23;19.40;67.90
14140;DHT22;7150;53.514;9.988;2023-04-24T12:11:57;19.40;67.90
14140;DHT22;7150;53.514;9.988;2023-04-24T12:14:23;19.40;66.70
14140;DHT22;7150;53.514;9.988;2023-04-24T12:16:50;19.40;67.10
14140;DHT22;7150;53.514;9.988;2023-04-24T12:19:23;19.40;66.80
14140;DHT22;7150;53.514;9.988;2023-04-24T12:22:05;19.30;67.00
14140;DHT22;7150;53.514;9.988;2023-04-24T12:24:31;19.30;67.00
14140;DHT22;7150;53.514;9.988;2023-04-24T12:26:58;19.40;66.90
14140;DHT22;7150;53.514;9.988;2023-04-24T12:29:24;19.40;67.00
14140;DHT22;7150;53.514;9.988;2023-04-24T12:31:51;19.40;67.20
14140;DHT22;7150;53.514;9.988;2023-04-24T12:34:20;19.40;67.00
14140;DHT22;7150;53.514;9.988;2023-04-24T12:36:47;19.40;67.10
14140;DHT22;7150;53.514;9.988;2023-04-24T12:39:19;19.40;67.00
14140;DHT22;7150;53.514;9.988;2023-04-24T12:42:11;19.30;67.20
14140;DHT22;7150;53.514;9.988;2023-04-24T12:44:37;19.30;67.30
14140;DHT22;7150;53.514;9.988;2023-04-24T12:47:02;19.20;67.10
14140;DHT22;7150;53.514;9.988;2023-04-24T12:49:30;19.10;67.10
14140;DHT22;7150;53.514;9.988;2023-04-24T12:51:55;19.10;67.70
14140;DHT22;7150;53.514;9.988;2023-04-24T12:54:22;19.10;67.90
14140;DHT22;7150;53.514;9.988;2023-04-24T12:56:47;18.90;68.10
14140;DHT22;7150;53.514;9.988;2023-04-24T12:59:12;18.90;68.80
14140;DHT22;7150;53.514;9.988;2023-04-24T13:01:38;18.80;69.30
14140;DHT22;7150;53.514;9.988;2023-04-24T13:04:05;18.80;70.30
14140;DHT22;7150;53.514;9.988;2023-04-24T13:06:30;18.70;70.80
14140;DHT22;7150;53.514;9.988;2023-04-24T13:09:24;18.70;71.30
14140;DHT22;7150;53.514;9.988;2023-04-24T13:11:50;18.70;71.30
14140;DHT22;7150;53.514;9.988;2023-04-24T13:14:16;18.60;70.90
14140;DHT22;7150;53.514;9.988;2023-04-24T13:20:04;18.50;70.60
14140;DHT22;7150;53.514;9.988;2023-04-24T13:22:29;18.40;72.20
14140;DHT22;7150;53.514;9.988;2023-04-24T13:24:55;18.40;72.70
14140;DHT22;7150;53.514;9.988;2023-04-24T13:27:21;18.40;72.50
14140;DHT22;7150;53.514;9.988;2023-04-24T13:29:46;18.30;72.90
14140;DHT22;7150;53.514;9.988;2023-04-24T13:32:12;18.30;73.60
14140;DHT22;7150;53.514;9.988;2023-04-24T13:34:38;18.30;73.80
14140;DHT22;7150;53.514;9.988;2023-04-24T13:37:04;18.40;74.00
14140;DHT22;7150;53.514;9.988;2023-04-24T13:39:30;18.30;73.30
14140;DHT22;7150;53.514;9.988;2023-04-24T13:41:55;18.40;72.70
14140;DHT22;7150;53.514;9.988;2023-04-24T13:44:22;18.30;72.40
14140;DHT22;7150;53.514;9.988;2023-04-24T13:46:50;18.30;72.10
14140;DHT22;7150;53.514;9.988;2023-04-24T13:49:17;18.30;72.20
14140;DHT22;7150;53.514;9.988;2023-04-24T13:51:43;18.30;72.00
14140;DHT22;7150;53.514;9.988;2023-04-24T13:54:09;18.40;71.90
14140;DHT22;7150;53.514;9.988;2023-04-24T13:56:34;18.30;71.80
14140;DHT22;7150;53.514;9.988;2023-04-24T13:59:00;18.30;71.60
14140;DHT22;7150;53.514;9.988;2023-04-24T14:01:26;18.30;72.10
14140;DHT22;7150;53.514;9.988;2023-04-24T14:03:52;18.30;72.40
14140;DHT22;7150;53.514;9.988;2023-04-24T14:06:19;18.30;72.60
14140;DHT22;7150;53.514;9.988;2023-04-24T14:08:45;18.30;73.00
14140;DHT22;7150;53.514;9.988;2023-04-24T14:11:10;18.30;73.00
14140;DHT22;7150;53.514;9.988;2023-04-24T14:13:36;18.40;72.70
14140;DHT22;7150;53.514;9.988;2023-04-24T14:16:03;18.40;72.80
14140;DHT22;7150;53.514;9.988;2023-04-24T14:18:29;18.40;72.70
14140;DHT22;7150;53.514;9.988;2023-04-24T14:20:54;18.40;71.70
14140;DHT22;7150;53.514;9.988;2023-04-24T14:23:20;18.40;71.50
14140;DHT22;7150;53.514;9.988;2023-04-24T14:25:45;18.40;71.50
14140;DHT22;7150;53.514;9.988;2023-04-24T14:28:11;18.40;71.50
14140;DHT22;7150;53.514;9.988;2023-04-24T14:30:37;18.40;71.60
14140;DHT22;7150;53.514;9.988;2023-04-24T14:33:03;18.40;71.60
14140;DHT22;7150;53.514;9.988;2023-04-24T14:35:29;18.40;71.50
14140;DHT22;7150;53.514;9.988;2023-04-24T14:37:56;18.30;71.30
14140;DHT22;7150;53.514;9.988;2023-04-24T14:40:22;18.30;71.40
14140;DHT22;7150;53.514;9.988;2023-04-24T14:42:47;18.30;71.40
14140;DHT22;7150;53.514;9.988;2023-04-24T14:45:13;18.20;71.30
14140;DHT22;7150;53.514;9.988;2023-04-24T14:47:39;18.00;72.70
14140;DHT22;7150;53.514;9.988;2023-04-24T14:50:05;17.80;75.10
14140;DHT22;7150;53.514;9.988;2023-04-24T14:52:30;17.50;78.10
14140;DHT22;7150;53.514;9.988;2023-04-24T14:54:56;17.40;79.60
14140;DHT22;7150;53.514;9.988;2023-04-24T14:57:22;17.40;80.30
14140;DHT22;7150;53.514;9.988;2023-04-24T14:59:48;17.30;81.10
14140;DHT22;7150;53.514;9.988;2023-04-24T15:02:13;17.20;81.80
14140;DHT22;7150;53.514;9.988;2023-04-24T15:04:39;17.20;82.30
14140;DHT22;7150;53.514;9.988;2023-04-24T15:07:04;17.20;82.80
14140;DHT22;7150;53.514;9.988;2023-04-24T15:09:30;17.10;83.40
14140;DHT22;7150;53.514;9.988;2023-04-24T15:11:57;17.00;84.50
14140;DHT22;7150;53.514;9.988;2023-04-24T15:14:23;17.00;85.10
14140;DHT22;7150;53.514;9.988;2023-04-24T15:16:48;16.90;85.80
14140;DHT22;7150;53.514;9.988;2023-04-24T15:19:14;16.70;86.30
14140;DHT22;7150;53.514;9.988;2023-04-24T15:21:39;16.50;87.10
14140;DHT22;7150;53.514;9.988;2023-04-24T15:24:06;16.50;88.10
14140;DHT22;7150;53.514;9.988;2023-04-24T15:26:32;16.50;88.00
14140;DHT22;7150;53.514;9.988;2023-04-24T15:28:57;16.50;87.30
14140;DHT22;7150;53.514;9.988;2023-04-24T15:31:23;16.50;86.80
14140;DHT22;7150;53.514;9.988;2023-04-24T15:33:49;16.30;86.40
14140;DHT22;7150;53.514;9.988;2023-04-24T15:36:15;16.20;86.90
14140;DHT22;7150;53.514;9.988;2023-04-24T15:38:42;16.00;87.20
14140;DHT22;7150;53.514;9.988;2023-04-24T15:41:07;15.90;87.30
14140;DHT22;7150;53.514;9.988;2023-04-24T15:43:33;15.90;87.70
14140;DHT22;7150;53.514;9.988;2023-04-24T15:46:00;16.00;87.80
14140;DHT22;7150;53.514;9.988;2023-04-24T15:48:27;16.00;87.70
14140;DHT22;7150;53.514;9.988;2023-04-24T15:50:52;15.80;86.50
14140;DHT22;7150;53.514;9.988;2023-04-24T15:53:18;15.80;86.30
14140;DHT22;7150;53.514;9.988;2023-04-24T15:55:47;15.80;86.40